createdAt,value
2023-05-25T00:00:01.952Z,92948.50
2023-05-25T00:01:36.590Z,92959.34
2023-05-25T00:03:10.176Z,92956.75
2023-05-25T00:04:42.426Z,92955.63
2023-05-25T00:06:15.751Z,92959.19
2023-05-25T00:07:47.774Z,92958.06
2023-05-25T00:09:19.745Z,92967.34
2023-05-25T00:10:51.725Z,92959.47
2023-05-25T00:12:23.375Z,92960.94
2023-05-25T00:13:55.098Z,92967.13
2023-05-25T00:15:26.982Z,92964.75
2023-05-25T00:16:58.769Z,92963.53
2023-05-25T00:18:30.334Z,92962.31
2023-05-25T00:20:09.101Z,92962.53
2023-05-25T00:21:42.527Z,92963.19
2023-05-25T00:23:14.092Z,92966.50
2023-05-25T00:24:45.663Z,92962.88
2023-05-25T00:26:17.617Z,92962.34
2023-05-25T00:27:49.348Z,92958.72
2023-05-25T00:29:21.407Z,92957.81
2023-05-25T00:30:53.109Z,92956.56
2023-05-25T00:32:26.081Z,92957.25
2023-05-25T00:33:57.812Z,92962.22
2023-05-25T00:35:29.660Z,92962.56
2023-05-25T00:37:01.375Z,92969.47
2023-05-25T00:38:33.065Z,92962.47
2023-05-25T00:40:07.381Z,92967.41
2023-05-25T00:41:41.749Z,92969.34
2023-05-25T00:43:13.759Z,92976.00
2023-05-25T00:44:45.458Z,92975.56
2023-05-25T00:46:17.631Z,92966.97
2023-05-25T00:47:51.892Z,92970.34
2023-05-25T00:49:24.060Z,92969.56
2023-05-25T00:50:58.173Z,92971.84
2023-05-25T00:52:30.139Z,92972.97
2023-05-25T00:54:02.064Z,92966.97
2023-05-25T00:55:38.329Z,92971.03
2023-05-25T00:57:09.889Z,92968.97
2023-05-25T00:58:42.035Z,92967.84
2023-05-25T01:00:14.092Z,92971.81
2023-05-25T01:01:46.177Z,92971.91
2023-05-25T01:03:22.092Z,92975.88
2023-05-25T01:04:54.537Z,92980.06
2023-05-25T01:06:27.191Z,92979.16
2023-05-25T01:07:59.596Z,92981.06
2023-05-25T01:09:31.898Z,92977.91
2023-05-25T01:11:03.605Z,92981.88
2023-05-25T01:12:38.903Z,92981.88
2023-05-25T01:14:11.700Z,92980.75
2023-05-25T01:15:43.524Z,92970.34
2023-05-25T01:17:16.009Z,92971.59
2023-05-25T01:18:48.478Z,92976.00
2023-05-25T01:20:20.272Z,92976.88
2023-05-25T01:21:57.921Z,92978.03
2023-05-25T01:23:32.020Z,92972.84
2023-05-25T01:25:04.493Z,92977.25
2023-05-25T01:26:37.944Z,92973.03
2023-05-25T01:28:15.852Z,92974.38
2023-05-25T01:29:47.581Z,92972.34
2023-05-25T01:31:21.644Z,92978.22
2023-05-25T01:32:53.745Z,92970.56
2023-05-25T01:34:26.563Z,92974.38
2023-05-25T01:35:58.644Z,92974.38
2023-05-25T01:37:31.602Z,92972.81
2023-05-25T01:39:03.958Z,92973.59
2023-05-25T01:40:36.059Z,92976.31
2023-05-25T01:42:07.928Z,92971.22
2023-05-25T01:43:39.633Z,92962.75
2023-05-25T01:45:11.836Z,92964.69
2023-05-25T01:46:44.748Z,92960.38
2023-05-25T01:48:21.343Z,92965.63
2023-05-25T01:49:56.840Z,92953.13
2023-05-25T01:51:33.129Z,92968.78
2023-05-25T01:53:06.488Z,92964.38
2023-05-25T01:54:38.924Z,92966.63
2023-05-25T01:56:12.098Z,92965.50
2023-05-25T01:57:44.180Z,92963.72
2023-05-25T01:59:15.994Z,92962.94
2023-05-25T02:00:48.185Z,92968.78
2023-05-25T02:02:19.935Z,92963.38
2023-05-25T02:03:51.703Z,92962.47
2023-05-25T02:05:23.389Z,92967.44
2023-05-25T02:06:54.916Z,92966.63
2023-05-25T02:08:27.238Z,92977.00
2023-05-25T02:09:59.280Z,92969.69
2023-05-25T02:11:32.417Z,92968.88
2023-05-25T02:13:04.078Z,92967.97
2023-05-25T02:14:35.743Z,92970.91
2023-05-25T02:16:08.095Z,92969.97
2023-05-25T02:17:40.295Z,92975.94
2023-05-25T02:19:14.992Z,92975.72
2023-05-25T02:20:47.922Z,92977.47
2023-05-25T02:22:19.617Z,92972.41
2023-05-25T02:23:51.298Z,92974.31
2023-05-25T02:25:22.848Z,92975.56
2023-05-25T02:26:55.122Z,92975.56
2023-05-25T02:28:27.008Z,92983.03
2023-05-25T02:29:58.569Z,92988.88
2023-05-25T02:31:30.306Z,92979.97
2023-05-25T02:33:02.715Z,92983.03
2023-05-25T02:34:34.430Z,92987.28
2023-05-25T02:36:06.474Z,92983.81
2023-05-25T02:37:38.253Z,92988.78
2023-05-25T02:39:10.452Z,92989.09
2023-05-25T02:40:42.125Z,92994.72
2023-05-25T02:42:13.754Z,92988.41
2023-05-25T02:43:45.923Z,92998.94
2023-05-25T02:45:17.676Z,93001.88
2023-05-25T02:46:49.369Z,92995.38
2023-05-25T02:48:22.279Z,93002.28
2023-05-25T02:49:53.922Z,93001.34
2023-05-25T02:51:26.451Z,93000.41
2023-05-25T02:52:58.122Z,93005.56
2023-05-25T02:54:29.851Z,93003.03
2023-05-25T02:56:02.335Z,93005.31
2023-05-25T02:57:34.220Z,93005.94
2023-05-25T02:59:06.058Z,93004.34
2023-05-25T03:00:37.997Z,93006.72
2023-05-25T03:02:09.712Z,93012.31
2023-05-25T03:03:41.810Z,93006.22
2023-05-25T03:05:13.626Z,93008.13
2023-05-25T03:06:45.419Z,93011.63
2023-05-25T03:08:18.242Z,93010.97
2023-05-25T03:09:50.232Z,93010.66
2023-05-25T03:11:22.741Z,93017.31
2023-05-25T03:12:54.631Z,93018.91
2023-05-25T03:14:26.298Z,93016.97
2023-05-25T03:15:58.123Z,93013.13
2023-05-25T03:17:29.904Z,93018.44
2023-05-25T03:19:02.449Z,93018.28
2023-05-25T03:20:35.026Z,93014.00
2023-05-25T03:22:07.801Z,93018.63
2023-05-25T03:23:39.401Z,93026.28
2023-05-25T03:25:13.417Z,93024.25
2023-05-25T03:26:44.986Z,93021.88
2023-05-25T03:28:16.786Z,93019.94
2023-05-25T03:29:52.068Z,93025.47
2023-05-25T03:31:23.717Z,93022.91
2023-05-25T03:32:55.680Z,93022.25
2023-05-25T03:34:28.438Z,93022.72
2023-05-25T03:36:00.074Z,93028.59
2023-05-25T03:37:31.630Z,93024.09
2023-05-25T03:39:03.763Z,93030.00
2023-05-25T03:40:35.645Z,93031.56
2023-05-25T03:42:07.333Z,93026.63
2023-05-25T03:43:39.014Z,93034.88
2023-05-25T03:45:11.315Z,93026.69
2023-05-25T03:46:43.145Z,93020.41
2023-05-25T03:48:14.872Z,93024.97
2023-05-25T03:49:46.728Z,93030.75
2023-05-25T03:51:18.452Z,93036.44
2023-05-25T03:52:50.956Z,93035.91
2023-05-25T03:54:23.079Z,93037.72
2023-05-25T03:55:54.646Z,93031.78
2023-05-25T03:57:26.218Z,93041.13
2023-05-25T03:58:58.178Z,93035.72
2023-05-25T04:00:29.862Z,93033.81
2023-05-25T04:02:01.383Z,93041.13
2023-05-25T04:03:33.880Z,93040.47
2023-05-25T04:05:08.061Z,93038.69
2023-05-25T04:06:40.210Z,93041.19
2023-05-25T04:08:14.628Z,93043.72
2023-05-25T04:09:46.307Z,93043.50
2023-05-25T04:11:18.675Z,93047.25
2023-05-25T04:12:52.005Z,93040.16
2023-05-25T04:14:24.280Z,93041.88
2023-05-25T04:15:56.227Z,93043.53
2023-05-25T04:17:28.648Z,93044.13
2023-05-25T04:19:00.685Z,93037.69
2023-05-25T04:20:32.724Z,93045.28
2023-05-25T04:22:04.596Z,93046.28
2023-05-25T04:23:37.038Z,93044.50
2023-05-25T04:25:08.884Z,93052.06
2023-05-25T04:26:42.049Z,93048.00
2023-05-25T04:28:13.745Z,93050.38
2023-05-25T04:29:45.898Z,93061.25
2023-05-25T04:31:17.688Z,93063.50
2023-05-25T04:32:49.574Z,93066.22
2023-05-25T04:34:22.209Z,93069.25
2023-05-25T04:35:54.532Z,93072.66
2023-05-25T04:37:31.015Z,93065.19
2023-05-25T04:39:03.317Z,93074.47
2023-05-25T04:40:36.087Z,93074.69
2023-05-25T04:42:08.066Z,93071.84
2023-05-25T04:43:46.354Z,93074.44
2023-05-25T04:45:29.367Z,93072.63
2023-05-25T04:47:01.744Z,93071.13
2023-05-25T04:48:34.536Z,93073.97
2023-05-25T04:50:06.693Z,93074.88
2023-05-25T04:51:38.389Z,93077.44
2023-05-25T04:53:10.116Z,93081.25
2023-05-25T04:54:42.133Z,93077.59
2023-05-25T04:56:13.777Z,93075.78
2023-05-25T04:57:45.352Z,93073.25
2023-05-25T04:59:16.963Z,93077.09
2023-05-25T05:00:49.746Z,93084.06
2023-05-25T05:02:22.455Z,93074.16
2023-05-25T05:03:54.334Z,93075.84
2023-05-25T05:05:26.050Z,93082.34
2023-05-25T05:06:59.109Z,93079.22
2023-05-25T05:08:31.297Z,93085.28
2023-05-25T05:10:03.106Z,93075.19
2023-05-25T05:11:34.865Z,93077.56
2023-05-25T05:13:06.492Z,93081.88
2023-05-25T05:14:38.114Z,93077.66
2023-05-25T05:16:09.881Z,93084.66
2023-05-25T05:17:42.187Z,93082.81
2023-05-25T05:19:13.885Z,93085.66
2023-05-25T05:20:46.243Z,93086.16
2023-05-25T05:22:18.496Z,93090.91
2023-05-25T05:23:50.408Z,93088.88
2023-05-25T05:25:23.269Z,93087.28
2023-05-25T05:26:58.962Z,93090.09
2023-05-25T05:28:32.229Z,93086.16
2023-05-25T05:30:04.053Z,93095.53
2023-05-25T05:31:37.615Z,93089.47
2023-05-25T05:33:09.731Z,93093.13
2023-05-25T05:34:41.487Z,93087.97
2023-05-25T05:36:13.152Z,93082.88
2023-05-25T05:37:44.767Z,93087.75
2023-05-25T05:39:16.902Z,93082.97
2023-05-25T05:40:48.483Z,93082.81
2023-05-25T05:42:20.381Z,93088.97
2023-05-25T05:43:52.335Z,93084.31
2023-05-25T05:45:25.373Z,93088.38
2023-05-25T05:47:01.324Z,93081.25
2023-05-25T05:48:33.765Z,93086.25
2023-05-25T05:50:05.912Z,93084.66
2023-05-25T05:51:37.676Z,93089.56
2023-05-25T05:53:10.241Z,93081.72
2023-05-25T05:54:41.823Z,93080.28
2023-05-25T05:56:17.507Z,93083.16
2023-05-25T05:57:49.490Z,93093.63
2023-05-25T05:59:21.808Z,93095.94
2023-05-25T06:00:57.058Z,93090.19
2023-05-25T06:02:29.006Z,93093.69
2023-05-25T06:04:00.814Z,93082.38
2023-05-25T06:05:32.438Z,93085.16
2023-05-25T06:07:04.143Z,93089.72
2023-05-25T06:08:36.077Z,93081.19
2023-05-25T06:10:08.115Z,93079.66
2023-05-25T06:11:40.543Z,93089.00
2023-05-25T06:13:12.168Z,93081.94
2023-05-25T06:14:43.839Z,93085.84
2023-05-25T06:16:15.795Z,93087.66
2023-05-25T06:17:47.492Z,93088.00
2023-05-25T06:19:19.112Z,93086.28
2023-05-25T06:20:51.637Z,93092.53
2023-05-25T06:22:25.830Z,93081.53
2023-05-25T06:23:58.418Z,93087.22
2023-05-25T06:25:30.199Z,93083.44
2023-05-25T06:27:03.489Z,93086.03
2023-05-25T06:28:35.980Z,93083.84
2023-05-25T06:30:08.279Z,93086.75
2023-05-25T06:31:43.219Z,93081.81
2023-05-25T06:33:15.452Z,93088.13
2023-05-25T06:34:47.496Z,93081.94
2023-05-25T06:36:19.111Z,93082.88
2023-05-25T06:37:50.802Z,93085.38
2023-05-25T06:39:23.100Z,93084.34
2023-05-25T06:40:55.845Z,93086.00
2023-05-25T06:42:28.817Z,93090.34
2023-05-25T06:44:00.706Z,93092.84
2023-05-25T06:45:32.794Z,93090.97
2023-05-25T06:47:06.724Z,93089.84
2023-05-25T06:48:39.207Z,93084.41
2023-05-25T06:50:12.770Z,93080.97
2023-05-25T06:51:44.418Z,93081.00
2023-05-25T06:53:20.169Z,93081.81
2023-05-25T06:54:52.398Z,93077.16
2023-05-25T06:56:24.539Z,93076.75
2023-05-25T06:57:56.506Z,93079.03
2023-05-25T06:59:28.604Z,93077.06
2023-05-25T07:01:01.351Z,93082.91
2023-05-25T07:02:33.323Z,93078.88
2023-05-25T07:04:05.324Z,93086.66
2023-05-25T07:05:37.927Z,93088.91
2023-05-25T07:07:09.866Z,93086.19
2023-05-25T07:08:41.727Z,93086.97
2023-05-25T07:10:13.806Z,93090.09
2023-05-25T07:11:45.648Z,93089.69
2023-05-25T07:13:17.416Z,93091.94
2023-05-25T07:14:49.445Z,93091.78
2023-05-25T07:16:21.848Z,93095.25
2023-05-25T07:17:54.176Z,93091.69
2023-05-25T07:19:27.464Z,93093.94
2023-05-25T07:21:00.055Z,93088.41
2023-05-25T07:22:32.164Z,93093.94
2023-05-25T07:24:04.172Z,93097.09
2023-05-25T07:25:38.240Z,93084.16
2023-05-25T07:27:10.279Z,93082.69
2023-05-25T07:28:42.399Z,93085.50
2023-05-25T07:30:14.658Z,93080.84
2023-05-25T07:31:47.236Z,93084.00
2023-05-25T07:33:19.748Z,93084.84
2023-05-25T07:34:51.673Z,93086.88
2023-05-25T07:36:25.186Z,93090.09
2023-05-25T07:38:00.959Z,93087.38
2023-05-25T07:39:32.761Z,93090.16
2023-05-25T07:41:04.622Z,93092.19
2023-05-25T07:42:36.939Z,93093.78
2023-05-25T07:44:08.696Z,93095.38
2023-05-25T07:45:40.923Z,93097.75
2023-05-25T07:47:13.134Z,93089.50
2023-05-25T07:48:44.907Z,93095.38
2023-05-25T07:50:17.085Z,93094.16
2023-05-25T07:51:48.651Z,93092.91
2023-05-25T07:53:20.341Z,93087.38
2023-05-25T07:54:52.300Z,93092.44
2023-05-25T07:56:24.190Z,93085.66
2023-05-25T07:57:56.457Z,93092.97
2023-05-25T07:59:29.450Z,93092.84
2023-05-25T08:01:01.229Z,93091.56
2023-05-25T08:02:33.133Z,93096.56
2023-05-25T08:04:05.486Z,93098.78
2023-05-25T08:05:38.979Z,93093.66
2023-05-25T08:07:11.424Z,93100.25
2023-05-25T08:08:45.118Z,93097.34
2023-05-25T08:10:17.131Z,93097.16
2023-05-25T08:11:48.857Z,93097.09
2023-05-25T08:13:20.828Z,93098.56
2023-05-25T08:14:52.498Z,93112.13
2023-05-25T08:16:24.207Z,93109.94
2023-05-25T08:17:56.896Z,93108.22
2023-05-25T08:19:31.343Z,93103.41
2023-05-25T08:21:03.042Z,93113.78
2023-05-25T08:22:37.842Z,93112.19
2023-05-25T08:24:10.415Z,93112.75
2023-05-25T08:25:42.488Z,93116.56
2023-05-25T08:27:14.211Z,93106.78
2023-05-25T08:28:45.918Z,93117.28
2023-05-25T08:30:17.538Z,93116.03
2023-05-25T08:31:50.423Z,93110.22
2023-05-25T08:33:23.471Z,93112.19
2023-05-25T08:34:57.267Z,93114.91
2023-05-25T08:36:29.298Z,93117.50
2023-05-25T08:38:00.949Z,93115.00
2023-05-25T08:39:34.195Z,93121.53
2023-05-25T08:41:06.913Z,93117.63
2023-05-25T08:42:39.060Z,93111.94
2023-05-25T08:44:10.859Z,93110.66
2023-05-25T08:45:49.617Z,93107.00
2023-05-25T08:47:24.442Z,93097.06
2023-05-25T08:48:57.748Z,93110.31
2023-05-25T08:50:29.584Z,93103.59
2023-05-25T08:52:03.504Z,93102.09
2023-05-25T08:53:36.479Z,93094.44
2023-05-25T08:55:09.070Z,93101.06
2023-05-25T08:57:01.561Z,93100.75
2023-05-25T08:58:33.650Z,93105.78
2023-05-25T09:00:13.034Z,93098.88
2023-05-25T09:01:45.843Z,93095.97
2023-05-25T09:03:23.080Z,93098.16
2023-05-25T09:04:55.292Z,93098.16
2023-05-25T09:06:29.801Z,93098.50
2023-05-25T09:08:01.781Z,93096.13
2023-05-25T09:09:35.555Z,93094.09
2023-05-25T09:11:07.808Z,93097.13
2023-05-25T09:12:39.662Z,93094.75
2023-05-25T09:14:11.912Z,93096.59
2023-05-25T09:15:43.853Z,93095.00
2023-05-25T09:17:16.456Z,93107.13
2023-05-25T09:21:15.439Z,93109.38
2023-05-25T09:22:48.036Z,93110.69
2023-05-25T09:53:26.833Z,93100.72
2023-05-25T09:54:58.562Z,93091.88
2023-05-25T09:56:31.841Z,93095.97
2023-05-25T09:58:03.415Z,93094.19
2023-05-25T09:59:35.084Z,93088.09
2023-05-25T10:01:08.437Z,93098.00
2023-05-25T10:02:40.415Z,93094.84
2023-05-25T10:04:12.161Z,93096.44
2023-05-25T10:05:44.649Z,93099.19
2023-05-25T10:07:16.630Z,93089.06
2023-05-25T10:08:49.085Z,93095.41
2023-05-25T10:10:20.743Z,93097.97
2023-05-25T10:11:52.754Z,93097.66
2023-05-25T10:13:24.403Z,93100.13
2023-05-25T10:14:56.298Z,93104.13
2023-05-25T10:16:29.872Z,93103.06
2023-05-25T10:18:01.695Z,93101.59
2023-05-25T10:19:47.435Z,93105.28
2023-05-25T10:21:19.429Z,93108.13
2023-05-25T10:23:03.400Z,93114.44
2023-05-25T10:24:36.866Z,93116.38
2023-05-25T10:26:09.381Z,93111.56
2023-05-25T10:27:41.932Z,93120.00
2023-05-25T10:29:14.517Z,93117.16
2023-05-25T10:30:46.680Z,93109.25
2023-05-25T10:32:19.199Z,93118.59
2023-05-25T10:33:52.543Z,93122.63
2023-05-25T10:35:24.728Z,93119.94
2023-05-25T10:36:56.588Z,93114.97
2023-05-25T10:38:30.906Z,93117.03
2023-05-25T10:40:02.953Z,93119.91
2023-05-25T10:41:34.565Z,93118.00
2023-05-25T10:43:06.462Z,93118.19
2023-05-25T10:44:39.161Z,93111.34
2023-05-25T10:46:13.249Z,93109.56
2023-05-25T10:47:47.022Z,93106.69
2023-05-25T10:49:32.124Z,93107.66
2023-05-25T10:51:04.626Z,93106.00
2023-05-25T10:52:36.524Z,93098.72
2023-05-25T10:54:08.186Z,93100.81
2023-05-25T10:55:49.663Z,93099.66
2023-05-25T10:57:22.381Z,93100.44
2023-05-25T10:58:54.223Z,93096.50
2023-05-25T11:00:26.775Z,93091.03
2023-05-25T11:01:58.485Z,93103.91
2023-05-25T11:03:49.112Z,93096.00
2023-05-25T11:05:27.642Z,93095.19
2023-05-25T11:07:02.573Z,93100.31
2023-05-25T11:08:50.883Z,93095.59
2023-05-25T11:10:42.112Z,93099.03
2023-05-25T11:12:22.976Z,93088.50
2023-05-25T11:13:54.614Z,93089.81
2023-05-25T11:15:26.820Z,93095.41
2023-05-25T11:17:05.535Z,93088.94
2023-05-25T11:18:38.315Z,93094.69
2023-05-25T11:20:11.241Z,93090.53
2023-05-25T11:21:43.747Z,93088.75
2023-05-25T11:23:24.454Z,93096.03
2023-05-25T11:24:56.194Z,93096.16
2023-05-25T11:26:29.275Z,93094.72
2023-05-25T11:28:04.763Z,93101.34
2023-05-25T11:29:37.650Z,93099.81
2023-05-25T11:31:09.495Z,93096.94
2023-05-25T11:32:47.172Z,93107.47
2023-05-25T11:34:19.429Z,93103.41
2023-05-25T11:35:51.837Z,93096.81
2023-05-25T11:37:29.111Z,93095.09
2023-05-25T11:39:11.670Z,93093.22
2023-05-25T11:40:49.769Z,93095.31
2023-05-25T11:42:22.277Z,93098.88
2023-05-25T11:43:54.094Z,93096.97
2023-05-25T11:45:26.688Z,93096.19
2023-05-25T11:46:58.717Z,93094.22
2023-05-25T11:48:30.392Z,93089.94
2023-05-25T11:50:02.137Z,93095.31
2023-05-25T11:51:33.841Z,93087.28
2023-05-25T11:53:07.300Z,93093.88
2023-05-25T11:54:41.639Z,93100.06
2023-05-25T11:56:18.090Z,93086.56
2023-05-25T11:57:56.950Z,93085.75
2023-05-25T11:59:30.596Z,93088.44
2023-05-25T12:01:17.612Z,93094.22
2023-05-25T12:02:49.655Z,93100.41
2023-05-25T12:04:24.166Z,93095.69
2023-05-25T12:05:57.199Z,93092.84
2023-05-25T12:07:29.146Z,93095.22
2023-05-25T12:09:02.070Z,93084.31
2023-05-25T12:10:33.897Z,93087.06
2023-05-25T12:12:06.111Z,93090.50
2023-05-25T12:13:40.811Z,93090.91
2023-05-25T12:15:20.525Z,93083.84
2023-05-25T12:16:54.018Z,93087.69
2023-05-25T12:18:29.207Z,93087.97
2023-05-25T12:20:01.134Z,93084.34
2023-05-25T12:21:33.005Z,93092.97
2023-05-25T12:23:04.710Z,93086.63
2023-05-25T12:24:36.568Z,93083.44
2023-05-25T12:26:12.136Z,93077.19
2023-05-25T12:27:44.206Z,93078.88
2023-05-25T12:29:16.480Z,93074.59
2023-05-25T12:30:49.229Z,93071.97
2023-05-25T12:32:21.141Z,93074.38
2023-05-25T12:34:09.839Z,93068.97
2023-05-25T12:35:45.592Z,93069.47
2023-05-25T12:37:19.648Z,93062.09
2023-05-25T12:39:00.749Z,93066.06
2023-05-25T12:40:32.388Z,93058.28
2023-05-25T12:42:04.225Z,93057.47
2023-05-25T12:43:43.928Z,93053.94
2023-05-25T12:45:15.961Z,93056.69
2023-05-25T12:46:48.556Z,93052.47
2023-05-25T12:48:26.577Z,93056.41
2023-05-25T12:50:14.516Z,93053.00
2023-05-25T12:51:46.190Z,93055.06
2023-05-25T12:53:17.887Z,93055.50
2023-05-25T12:54:50.366Z,93050.09
2023-05-25T12:56:22.851Z,93054.84
2023-05-25T12:57:58.434Z,93046.75
2023-05-25T12:59:31.113Z,93053.84
2023-05-25T13:01:04.783Z,93052.31
2023-05-25T13:02:36.477Z,93041.41
2023-05-25T13:04:08.162Z,93035.59
2023-05-25T13:05:40.357Z,93040.72
2023-05-25T13:07:13.193Z,93027.84
2023-05-25T13:08:45.510Z,93029.91
2023-05-25T13:10:18.774Z,93024.06
2023-05-25T13:11:50.489Z,93024.91
2023-05-25T13:13:22.250Z,93027.28
2023-05-25T13:14:54.105Z,93020.69
2023-05-25T13:16:26.223Z,93034.44
2023-05-25T13:17:58.909Z,93030.56
2023-05-25T13:19:30.903Z,93025.84
2023-05-25T13:21:02.887Z,93028.19
2023-05-25T13:22:35.096Z,93025.84
2023-05-25T13:24:07.596Z,93030.53
2023-05-25T13:25:39.688Z,93025.41
2023-05-25T13:27:12.105Z,93025.41
2023-05-25T13:28:44.262Z,93028.16
2023-05-25T13:30:16.026Z,93021.88
2023-05-25T13:31:48.419Z,93023.06
2023-05-25T13:33:21.865Z,93024.22
2023-05-25T13:35:00.158Z,93018.72
2023-05-25T13:36:35.420Z,93012.84
2023-05-25T13:38:07.244Z,93014.03
2023-05-25T13:39:39.189Z,93010.13
2023-05-25T13:41:11.648Z,93016.06
2023-05-25T13:42:43.195Z,93010.53
2023-05-25T13:44:17.395Z,93013.66
2023-05-25T13:45:50.043Z,93013.22
2023-05-25T13:47:21.841Z,93008.53
2023-05-25T13:48:53.627Z,93017.91
2023-05-25T13:50:25.668Z,93011.66
2023-05-25T13:51:58.071Z,93006.16
2023-05-25T13:53:29.772Z,93007.34
2023-05-25T13:55:01.693Z,93014.44
2023-05-25T13:56:33.489Z,93008.56
2023-05-25T13:58:05.418Z,93009.34
2023-05-25T13:59:38.187Z,93002.28
2023-05-25T14:01:11.309Z,93009.00
2023-05-25T14:03:02.198Z,93005.47
2023-05-25T14:04:34.065Z,93004.69
2023-05-25T14:06:25.262Z,92992.91
2023-05-25T14:07:56.987Z,92997.59
2023-05-25T14:09:28.821Z,92996.84
2023-05-25T14:11:00.609Z,93003.53
2023-05-25T14:12:32.978Z,92999.97
2023-05-25T14:17:24.338Z,93001.53
2023-05-25T14:18:57.072Z,93005.06
2023-05-25T14:20:28.824Z,92999.94
2023-05-25T14:22:12.360Z,92997.97
2023-05-25T14:23:44.803Z,92997.59
2023-05-25T14:25:16.756Z,92993.31
2023-05-25T14:26:48.325Z,92987.03
2023-05-25T14:28:20.045Z,92995.22
2023-05-25T14:29:51.860Z,92988.97
2023-05-25T14:31:23.578Z,92992.88
2023-05-25T14:32:55.352Z,92985.84
2023-05-25T14:34:27.001Z,92992.13
2023-05-25T14:35:58.727Z,92983.44
2023-05-25T14:37:30.327Z,92979.53
2023-05-25T14:39:01.953Z,92977.16
2023-05-25T14:40:34.613Z,92978.72
2023-05-25T14:42:06.894Z,92970.47
2023-05-25T14:43:38.542Z,92970.03
2023-05-25T14:45:11.645Z,92976.75
2023-05-25T14:46:44.104Z,92973.22
2023-05-25T14:48:17.256Z,92967.72
2023-05-25T14:49:48.908Z,92974.00
2023-05-25T14:51:20.492Z,92977.16
2023-05-25T14:52:52.136Z,92972.06
2023-05-25T14:54:23.760Z,92976.41
2023-05-25T14:55:55.331Z,92967.78
2023-05-25T14:57:27.418Z,92967.38
2023-05-25T14:58:59.046Z,92967.34
2023-05-25T15:00:31.121Z,92965.81
2023-05-25T15:02:02.944Z,92960.28
2023-05-25T15:03:34.725Z,92959.84
2023-05-25T15:05:06.551Z,92951.59
2023-05-25T15:06:39.549Z,92958.66
2023-05-25T15:08:11.266Z,92954.31
2023-05-25T15:09:43.734Z,92952.00
2023-05-25T15:11:15.531Z,92952.00
2023-05-25T15:12:47.659Z,92956.34
2023-05-25T15:14:19.297Z,92966.19
2023-05-25T15:15:54.713Z,92964.63
2023-05-25T15:17:26.359Z,92968.56
2023-05-25T15:18:57.997Z,92981.50
2023-05-25T15:20:29.602Z,92968.13
2023-05-25T15:22:02.149Z,92967.63
2023-05-25T15:23:33.968Z,92971.50
2023-05-25T15:25:06.537Z,92971.44
2023-05-25T15:26:39.185Z,92975.28
2023-05-25T15:28:10.863Z,92961.41
2023-05-25T15:29:42.562Z,92972.53
2023-05-25T15:31:14.208Z,92971.50
2023-05-25T15:32:45.976Z,92966.50
2023-05-25T15:34:17.701Z,92977.19
2023-05-25T15:35:49.300Z,92967.19
2023-05-25T15:37:20.938Z,92968.59
2023-05-25T15:38:52.588Z,92971.94
2023-05-25T15:40:24.575Z,92973.34
2023-05-25T15:41:56.399Z,92968.94
2023-05-25T15:43:28.003Z,92970.41
2023-05-25T15:44:59.601Z,92961.69
2023-05-25T15:46:31.334Z,92969.78
2023-05-25T15:48:04.148Z,92966.53
2023-05-25T15:49:37.350Z,92969.94
2023-05-25T15:51:08.973Z,92965.97
2023-05-25T15:52:41.760Z,92968.28
2023-05-25T15:54:14.562Z,92957.78
2023-05-25T15:55:46.725Z,92962.88
2023-05-25T15:57:19.189Z,92965.25
2023-05-25T15:58:50.829Z,92965.69
2023-05-25T16:00:22.558Z,92966.53
2023-05-25T16:01:54.254Z,92966.63
2023-05-25T16:03:25.990Z,92967.47
2023-05-25T16:04:57.910Z,92965.56
2023-05-25T16:06:29.946Z,92964.81
2023-05-25T16:08:01.602Z,92968.66
2023-05-25T16:09:33.197Z,92961.25
2023-05-25T16:11:04.980Z,92965.97
2023-05-25T16:12:36.545Z,92966.34
2023-05-25T16:14:08.296Z,92969.78
2023-05-25T16:15:40.274Z,92962.66
2023-05-25T16:17:12.499Z,92975.09
2023-05-25T16:18:44.786Z,92973.59
2023-05-25T16:20:16.795Z,92975.09
2023-05-25T16:21:48.414Z,92973.25
2023-05-25T16:23:20.044Z,92969.06
2023-05-25T16:24:51.800Z,92969.88
2023-05-25T16:26:24.219Z,92975.47
2023-05-25T16:27:55.809Z,92979.47
2023-05-25T16:29:27.419Z,92974.06
2023-05-25T16:30:59.075Z,92987.44
2023-05-25T16:32:30.849Z,92983.59
2023-05-25T16:34:05.714Z,92987.50
2023-05-25T16:35:37.365Z,92986.41
2023-05-25T16:37:09.019Z,92987.63
2023-05-25T16:38:41.158Z,92981.72
2023-05-25T16:40:13.643Z,92983.97
2023-05-25T16:41:45.394Z,92979.22
2023-05-25T16:43:17.249Z,92978.25
2023-05-25T16:44:49.708Z,92980.06
2023-05-25T16:46:21.789Z,92980.75
2023-05-25T16:47:53.851Z,92977.56
2023-05-25T16:49:25.551Z,92982.53
2023-05-25T16:50:57.528Z,92973.88
2023-05-25T16:52:29.242Z,92973.78
2023-05-25T16:54:00.815Z,92966.31
2023-05-25T16:55:33.902Z,92966.31
2023-05-25T16:57:06.965Z,92966.31
2023-05-25T16:58:38.929Z,92974.16
2023-05-25T17:00:11.025Z,92965.97
2023-05-25T17:01:43.402Z,92968.22
2023-05-25T17:03:15.614Z,92974.78
2023-05-25T17:04:47.461Z,92979.69
2023-05-25T17:06:19.254Z,92980.09
2023-05-25T17:07:51.529Z,92982.41
2023-05-25T17:09:25.403Z,92980.81
2023-05-25T17:10:57.164Z,92975.72
2023-05-25T17:12:29.038Z,92982.25
2023-05-25T17:14:00.612Z,92984.97
2023-05-25T17:15:32.732Z,92979.78
2023-05-25T17:17:04.407Z,92982.88
2023-05-25T17:18:36.473Z,92986.75
2023-05-25T17:20:08.195Z,92984.00
2023-05-25T17:21:39.904Z,92992.09
2023-05-25T17:23:11.702Z,92997.84
2023-05-25T17:24:43.392Z,92998.63
2023-05-25T17:26:15.216Z,92999.72
2023-05-25T17:27:46.903Z,93010.66
2023-05-25T17:29:18.722Z,93005.56
2023-05-25T17:30:50.832Z,93009.00
2023-05-25T17:32:22.711Z,93008.97
2023-05-25T17:33:55.313Z,93006.94
2023-05-25T17:35:30.091Z,93010.31
2023-05-25T17:37:01.807Z,93012.13
2023-05-25T17:38:36.981Z,93015.56
2023-05-25T17:40:09.117Z,93015.72
2023-05-25T17:41:41.563Z,93016.19
2023-05-25T17:43:13.670Z,93026.03
2023-05-25T17:44:45.731Z,93019.88
2023-05-25T17:46:18.900Z,93030.00
2023-05-25T17:47:50.638Z,93026.84
2023-05-25T17:49:22.257Z,93025.72
2023-05-25T17:50:53.973Z,93030.81
2023-05-25T17:52:26.382Z,93035.56
2023-05-25T17:53:58.030Z,93028.25
2023-05-25T17:55:29.593Z,93037.25
2023-05-25T17:57:02.420Z,93032.59
2023-05-25T17:58:34.121Z,93041.94
2023-05-25T18:00:05.972Z,93041.56
2023-05-25T18:01:38.491Z,93035.75
2023-05-25T18:03:10.477Z,93040.41
2023-05-25T18:04:42.289Z,93037.69
2023-05-25T18:06:13.905Z,93040.78
2023-05-25T18:07:45.655Z,93035.31
2023-05-25T18:09:17.948Z,93033.31
2023-05-25T18:10:50.766Z,93038.72
2023-05-25T18:12:22.446Z,93036.72
2023-05-25T18:13:54.123Z,93041.25
2023-05-25T18:15:25.751Z,93039.84
2023-05-25T18:16:59.922Z,93044.00
2023-05-25T18:18:32.231Z,93047.31
2023-05-25T18:20:04.489Z,93043.16
2023-05-25T18:21:39.745Z,93041.38
2023-05-25T18:23:13.566Z,93048.94
2023-05-25T18:24:45.416Z,93049.84
2023-05-25T18:26:17.235Z,93049.28
2023-05-25T18:27:49.089Z,93056.59
2023-05-25T18:29:20.798Z,93047.69
2023-05-25T18:30:52.456Z,93049.28
2023-05-25T18:32:24.105Z,93058.16
2023-05-25T18:33:56.291Z,93055.56
2023-05-25T18:35:28.200Z,93051.88
2023-05-25T18:36:59.922Z,93068.94
2023-05-25T18:38:31.680Z,93070.16
2023-05-25T18:40:03.801Z,93072.97
2023-05-25T18:41:35.842Z,93064.09
2023-05-25T18:43:08.453Z,93073.06
2023-05-25T18:44:40.490Z,93079.66